< < Back
Terminal Aerodrome Forecast


Current Version              Previous Versions:   1  2  3  4  5  6  7  8  9  

Terminal Aerodrome Forecast

652
FTUS42 KGSP 011700
TAFCLT
TAF
KCLT 011725Z 0118/0218 19003KT P6SM SCT050
     FM012000 19003KT P6SM BKN050
     FM012300 17003KT P6SM SCT050=

Latest METAR

626
SAUS70 KWBC 012200 RRJ
MTRCLT
METAR KCLT 012152Z 00000KT 10SM FEW055 SCT250 28/13 A2999 RMK AO2 SLP149
T02830128


USA.gov is the U.S. government's official web portal to all federal, state and local government web resources and services.